EDT,Max TemperatureF,Mean TemperatureF,Min TemperatureF,Max Dew PointF,MeanDew PointF,Min DewpointF,Max Humidity, Mean Humidity, Min Humidity, Max Sea Level PressureIn, Mean Sea Level PressureIn, Min Sea Level PressureIn, Max VisibilityMiles, Mean VisibilityMiles, Min VisibilityMiles, Max Wind SpeedMPH, Mean Wind SpeedMPH, Max Gust SpeedMPH,PrecipitationIn, CloudCover, Events, WindDirDegrees
2013-7-1,69,64,60,59,55,50,83,72,60,30.06,30.01,29.93,10,10,9,15,9,21,0.03,6,Rain,13
2013-7-2,71,66,60,62,58,55,82,74,68,30.09,30.06,30.02,10,10,10,13,8,,0.00,7,,58
2013-7-3,82,71,60,71,65,59,96,82,60,30.13,30.09,30.06,10,8,4,15,6,,0.00,5,,135
2013-7-4,81,74,70,71,69,66,99,86,65,30.13,30.10,30.07,10,10,8,14,8,,0.00,5,,183
2013-7-5,79,74,69,70,69,66,100,90,66,30.13,30.09,30.07,10,7,3,10,4,,0.05,6,Rain,161
2013-7-6,82,74,67,72,70,66,100,90,70,30.13,30.06,30.00,10,9,5,13,4,,0.16,5,Rain,205
2013-7-7,80,74,69,72,70,66,100,89,62,30.03,30.01,29.97,10,8,3,13,4,,0.02,6,Rain,244
2013-7-8,81,75,69,73,70,66,100,91,75,30.05,30.01,29.96,10,8,1,18,8,24,0.02,6,Rain-Thunderstorm,185
2013-7-9,84,78,71,76,72,69,100,89,66,29.99,29.94,29.86,10,7,2,16,5,18,0.00,6,Rain,217
2013-7-10,89,78,65,76,71,58,100,89,59,29.93,29.83,29.76,10,7,0,23,11,31,2.09,5,Fog-Rain-Thunderstorm,228
2013-7-11,76,68,59,61,57,55,88,69,50,30.08,30.03,29.94,12,11,10,15,7,21,0.00,1,,354
2013-7-12,80,68,56,64,59,55,96,75,52,30.18,30.14,30.08,12,11,10,12,7,,0.00,0,,23
2013-7-13,80,70,60,67,62,58,94,75,53,30.23,30.20,30.16,12,11,10,8,5,,0.00,0,Rain,71
2013-7-14,86,76,66,72,69,64,94,76,58,30.28,30.26,30.22,10,10,10,8,5,,0.00,1,,93
2013-7-15,87,79,71,77,74,71,99,85,66,30.32,30.28,30.24,10,10,4,9,4,,0.07,4,Rain-Thunderstorm,85
2013-7-16,88,80,73,79,75,73,100,88,69,30.32,30.27,30.23,10,8,2,13,3,,0.00,3,Rain-Thunderstorm,285
2013-7-17,93,84,74,79,75,72,94,75,56,30.28,30.21,30.14,10,10,7,12,5,,0.00,1,,270
2013-7-18,92,84,76,77,75,71,95,79,58,30.15,30.06,29.96,10,9,1,15,5,26,0.73,2,Rain-Thunderstorm,193
2013-7-19,93,84,76,76,72,67,92,72,47,29.95,29.79,29.71,10,9,3,21,10,32,0.00,2,Rain-Thunderstorm,228
2013-7-20,84,76,67,73,68,58,100,82,43,29.94,29.80,29.72,12,9,0,34,11,54,0.95,5,Fog-Rain-Thunderstorm,325
2013-7-21,79,70,61,63,60,55,86,70,53,30.03,29.98,29.94,12,11,10,12,7,,0.00,3,Rain,38
2013-7-22,78,73,69,70,65,57,95,77,59,29.97,29.88,29.78,10,10,10,12,7,,0.00,5,,126
2013-7-23,80,70,61,70,66,51,98,84,62,29.87,29.73,29.65,10,8,2,18,7,25,0.32,4,Rain-Thunderstorm,252
2013-7-24,70,62,54,52,50,48,80,65,52,30.06,30.00,29.89,12,11,10,14,9,18,0.00,2,,1
2013-7-25,73,62,50,58,52,48,91,68,49,30.13,30.10,30.05,12,11,10,9,5,,0.00,1,,51
2013-7-26,76,67,58,62,59,56,92,66,51,30.10,30.02,29.93,12,12,10,14,6,,0.00,5,,160
2013-7-27,72,66,58,67,64,54,100,90,72,29.90,29.82,29.73,10,8,2,16,9,22,0.10,7,Rain-Thunderstorm,218
2013-7-28,67,58,50,57,53,48,94,77,58,29.97,29.90,29.83,12,10,3,16,8,26,0.08,5,Rain,240
2013-7-29,70,63,56,56,54,52,89,74,58,30.18,30.05,29.97,12,11,10,13,8,,0.01,5,Rain,261
2013-7-30,74,64,54,60,57,53,97,72,52,30.25,30.20,30.14,12,11,7,8,4,,0.00,2,,130
2013-7-31,73,68,62,68,66,59,100,93,78,30.14,29.97,29.86,12,7,1,10,4,,0.13,7,Rain,162